Strait of Georgia - north of Nanaimo: Past 24 Hour Conditions

 

Halibut Bank - 46146

02:00 PM PDT 22 October 2014Buoy position: 49.34N 123.72W
This table is a summary of hourly weather conditions for the past 24 hours.
Date / Time
(PDT)
Wind(knots) Wave height(m) Wave period(s) Pressure(kPa) Air tempC) Water tempC)
22 October 2014
14:00 ESE 14 gust 16 0.6 3.0 100.3 12 11
13:00 ESE 16 gust 19 0.6 4.0 100.3 12 11
12:00 ESE 14 gust 16 0.7 4.0 100.4 12 11
11:00 ESE 12 gust 16 0.8 4.0 100.4 12 11
10:00 ESE 12 gust 12 0.8 5.0 100.4 12 11
9:00 SE 12 gust 16 1.0 4.0 100.3 12 11
8:00 SSE 14 gust 18 1.2 6.0 100.2 12 11
7:00 SSE 19 gust 23 1.5 6.0 100.2 12 11
6:00 SSE 21 gust 25 1.4 5.0 100.1 12 11
5:00 ESE 19 gust 23 1.5 5.0 100.1 12 11
4:00 SE 25 gust 31 1.7 5.0 99.9 12 11
3:00 SE 18 gust 21 1.6 6.0 100.0 12 11
2:00 SE 19 gust 25 1.4 6.0 100.0 12 11
1:00 ESE 18 gust 19 1.5 5.0 100.0 12 11
0:00 ESE 21 gust 25 1.4 4.0 100.0 13 11
21 October 2014
23:00 ESE 21 gust 25 1.1 4.0 100.2 13 11
22:00 ESE 19 gust 23 1.2 5.0 100.3 13 11
21:00 E 21 gust 25 1.1 4.0 100.4 12 11
20:00 E 19 gust 23 1.1 5.0 100.5 13 11
19:00 ESE 19 gust 25 1.1 4.0 100.6 12 11
18:00 SE 19 gust 25 1.1 4.0 100.7 13 11
17:00 SE 21 gust 25 0.9 4.0 100.7 13 11
16:00 ESE 19 gust 21 0.8 4.0 100.8 13 11
15:00 ESE 18 gust 21 0.8 4.0 100.8 13 11
14:00 ESE 18 gust 19 0.9 4.0 100.9 13 12
 
Map of Pacific - Georgia Basin marine weather areas Tsawwassen Ferry Terminal Sentry Shoal - 46131 Halibut Bank - 46146 La Perouse Bank - 46206 Discovery Island Esquimalt Harbour Kelp Reefs Malahat Race Rocks Lightstation Saturna Island Sheringham Point University of Victoria Victoria Gonzales Victoria Int'l Airport Ballenas Islands Campbell River Airport Comox Airport Entrance Island Fanny Island Nanaimo Airport Sisters Islets Estevan Point Tofino Airport Grief Point Powell River Airport Sechelt Point Atkinson Sand Heads Lightstation Vancouver Harbour Vancouver Int'l Airport West Vancouver Port Alberni Howe Sound - Pam Rocks Squamish Airport